createdAt,value
2018-12-08T00:02:24.203Z,8.70
2018-12-08T00:06:27.866Z,8.60
2018-12-08T00:10:31.550Z,8.60
2018-12-08T00:14:35.226Z,8.60
2018-12-08T00:18:38.886Z,8.50
2018-12-08T00:22:41.731Z,8.30
2018-12-08T00:26:44.542Z,8.00
2018-12-08T00:30:59.513Z,7.90
2018-12-08T00:35:03.301Z,7.80
2018-12-08T00:39:07.858Z,8.00
2018-12-08T00:43:11.493Z,8.10
2018-12-08T00:47:15.183Z,8.20
2018-12-08T00:51:18.797Z,8.20
2018-12-08T00:55:22.426Z,8.30
2018-12-08T00:59:26.088Z,8.40
2018-12-08T01:03:29.740Z,8.40
2018-12-08T01:07:33.423Z,8.40
2018-12-08T01:11:38.475Z,8.40
2018-12-08T01:15:42.162Z,8.30
2018-12-08T01:19:45.826Z,8.30
2018-12-08T01:23:49.567Z,8.30
2018-12-08T01:27:53.215Z,8.30
2018-12-08T01:31:56.881Z,8.10
2018-12-08T01:36:00.542Z,8.20
2018-12-08T01:40:04.785Z,8.10
2018-12-08T01:44:08.430Z,8.10
2018-12-08T01:48:12.042Z,8.10
2018-12-08T01:52:15.791Z,8.10
2018-12-08T01:56:19.660Z,8.20
2018-12-08T02:00:23.334Z,8.20
2018-12-08T02:04:26.990Z,8.20
2018-12-08T02:08:30.662Z,8.30
2018-12-08T02:12:34.501Z,8.20
2018-12-08T02:16:38.158Z,8.20
2018-12-08T02:20:41.815Z,8.20
2018-12-08T02:24:45.474Z,8.20
2018-12-08T02:28:49.122Z,8.30
2018-12-08T02:32:52.738Z,8.30
2018-12-08T02:36:56.417Z,8.30
2018-12-08T02:41:00.065Z,8.30
2018-12-08T02:45:03.846Z,8.30
2018-12-08T02:49:07.522Z,8.20
2018-12-08T02:53:11.162Z,8.20
2018-12-08T02:57:14.818Z,8.20
2018-12-08T03:01:18.558Z,8.20
2018-12-08T03:05:22.230Z,8.20
2018-12-08T03:09:25.878Z,8.10
2018-12-08T03:13:29.565Z,8.20
2018-12-08T03:17:33.426Z,8.20
2018-12-08T03:21:37.087Z,8.20
2018-12-08T03:25:40.710Z,8.10
2018-12-08T03:29:44.377Z,8.10
2018-12-08T03:33:48.030Z,8.20
2018-12-08T03:37:51.684Z,8.20
2018-12-08T03:41:55.445Z,8.20
2018-12-08T03:45:59.125Z,8.20
2018-12-08T03:50:02.784Z,8.10
2018-12-08T03:54:06.434Z,8.10
2018-12-08T03:58:10.070Z,8.10
2018-12-08T04:02:13.760Z,8.20
2018-12-08T04:06:17.409Z,8.20
2018-12-08T04:10:21.074Z,8.20
2018-12-08T04:14:24.756Z,8.20
2018-12-08T04:18:28.402Z,8.10
2018-12-08T04:22:32.069Z,8.10
2018-12-08T04:26:35.726Z,8.20
2018-12-08T04:30:39.440Z,8.10
2018-12-08T04:34:43.082Z,8.20
2018-12-08T04:38:46.699Z,8.20
2018-12-08T04:42:50.363Z,8.20
2018-12-08T04:46:54.135Z,8.20
2018-12-08T04:50:57.786Z,8.30
2018-12-08T04:55:01.415Z,8.30
2018-12-08T04:59:05.041Z,8.30
2018-12-08T05:03:08.730Z,8.40
2018-12-08T05:07:12.388Z,8.40
2018-12-08T05:11:16.090Z,8.40
2018-12-08T05:15:19.749Z,8.50
2018-12-08T05:19:23.385Z,8.50
2018-12-08T05:23:27.067Z,8.40
2018-12-08T05:27:30.735Z,8.50
2018-12-08T05:31:34.401Z,8.50
2018-12-08T05:35:38.126Z,8.50
2018-12-08T05:39:41.781Z,8.60
2018-12-08T05:43:45.440Z,8.50
2018-12-08T05:47:49.081Z,8.50
2018-12-08T05:51:52.745Z,8.60
2018-12-08T05:55:56.442Z,8.60
2018-12-08T06:00:00.203Z,8.60
2018-12-08T06:04:04.117Z,8.60
2018-12-08T06:08:07.792Z,8.60
2018-12-08T06:12:11.505Z,10.00
2018-12-08T06:16:15.119Z,8.40
2018-12-08T06:20:18.801Z,8.50
2018-12-08T06:24:22.478Z,8.60
2018-12-08T06:28:30.228Z,8.70
2018-12-08T06:32:33.899Z,8.80
2018-12-08T06:36:37.525Z,8.70
2018-12-08T06:40:41.210Z,8.60
2018-12-08T06:44:44.891Z,8.70
2018-12-08T06:48:48.553Z,8.70
2018-12-08T06:52:52.166Z,8.70
2018-12-08T06:56:55.843Z,8.80
2018-12-08T07:00:59.506Z,8.70
2018-12-08T07:05:03.306Z,8.80
2018-12-08T07:09:07.822Z,8.70
2018-12-08T07:13:11.537Z,8.80
2018-12-08T07:17:15.198Z,8.80
2018-12-08T07:21:18.862Z,8.80
2018-12-08T07:25:22.542Z,8.80
2018-12-08T07:29:26.190Z,8.90
2018-12-08T07:33:31.494Z,8.90
2018-12-08T07:37:35.135Z,9.00
2018-12-08T07:41:38.805Z,9.00
2018-12-08T07:45:42.447Z,9.00
2018-12-08T07:49:46.094Z,9.00
2018-12-08T07:53:49.891Z,9.00
2018-12-08T07:57:53.489Z,8.90
2018-12-08T08:01:57.141Z,9.00
2018-12-08T08:06:00.782Z,9.10
2018-12-08T08:10:05.726Z,9.10
2018-12-08T08:14:09.510Z,9.10
2018-12-08T08:18:13.135Z,9.20
2018-12-08T08:22:16.794Z,9.20
2018-12-08T08:26:20.441Z,9.20
2018-12-08T08:30:24.119Z,9.10
2018-12-08T08:34:27.794Z,9.20
2018-12-08T08:38:31.486Z,9.30
2018-12-08T08:42:35.122Z,9.20
2018-12-08T08:46:38.765Z,9.20
2018-12-08T08:50:42.791Z,9.20
2018-12-08T08:54:46.489Z,9.30
2018-12-08T08:58:50.130Z,9.10
2018-12-08T09:02:53.777Z,9.20
2018-12-08T09:06:57.443Z,9.20
2018-12-08T09:11:01.158Z,9.10
2018-12-08T09:15:06.406Z,9.00
2018-12-08T09:19:10.036Z,9.10
2018-12-08T09:23:13.671Z,9.00
2018-12-08T09:27:17.338Z,9.10
2018-12-08T09:31:21.005Z,9.20
2018-12-08T09:35:24.783Z,9.20
2018-12-08T09:39:28.434Z,9.30
2018-12-08T09:43:32.142Z,9.40
2018-12-08T09:47:35.874Z,9.40
2018-12-08T09:51:39.531Z,9.30
2018-12-08T09:55:43.184Z,9.40
2018-12-08T09:59:46.834Z,9.40
2018-12-08T10:03:50.618Z,9.30
2018-12-08T10:07:54.298Z,9.30
2018-12-08T10:11:58.006Z,9.40
2018-12-08T10:16:01.658Z,9.40
2018-12-08T10:20:05.503Z,9.40
2018-12-08T10:24:09.593Z,9.40
2018-12-08T10:28:13.251Z,9.30
2018-12-08T10:32:17.149Z,9.30
2018-12-08T10:36:20.941Z,9.20
2018-12-08T10:40:24.723Z,9.30
2018-12-08T10:44:28.407Z,9.40
2018-12-08T10:48:32.091Z,9.40
2018-12-08T10:52:35.781Z,9.40
2018-12-08T10:56:39.382Z,9.40
2018-12-08T11:00:48.365Z,9.40
2018-12-08T11:04:52.180Z,9.30
2018-12-08T11:08:55.849Z,9.40
2018-12-08T11:12:59.552Z,9.40
2018-12-08T11:17:03.168Z,9.30
2018-12-08T11:21:06.829Z,9.30
2018-12-08T11:25:10.490Z,9.30
2018-12-08T11:29:14.146Z,9.30
2018-12-08T11:33:17.807Z,9.30
2018-12-08T11:37:21.411Z,9.30
2018-12-08T11:41:25.046Z,9.30
2018-12-08T11:45:28.814Z,9.40
2018-12-08T11:49:32.445Z,9.40
2018-12-08T11:53:36.105Z,9.40
2018-12-08T11:57:39.807Z,9.40
2018-12-08T12:01:43.556Z,9.40
2018-12-08T12:05:47.285Z,9.50
2018-12-08T12:09:51.090Z,9.50
2018-12-08T12:13:54.919Z,9.50
2018-12-08T12:17:58.672Z,9.50
2018-12-08T12:22:02.393Z,9.50
2018-12-08T12:26:06.161Z,9.60
2018-12-08T12:30:10.617Z,9.60
2018-12-08T12:34:14.401Z,9.60
2018-12-08T12:38:18.132Z,9.60
2018-12-08T12:42:21.869Z,9.60
2018-12-08T12:46:25.622Z,9.60
2018-12-08T12:50:29.360Z,9.70
2018-12-08T12:54:33.174Z,9.70
2018-12-08T12:58:36.780Z,9.80
2018-12-08T13:02:40.414Z,9.90
2018-12-08T13:06:44.038Z,10.00
2018-12-08T13:10:47.967Z,10.00
2018-12-08T13:14:51.655Z,9.90
2018-12-08T13:18:55.276Z,10.00
2018-12-08T13:22:58.946Z,10.00
2018-12-08T13:27:02.622Z,10.00
2018-12-08T13:31:06.282Z,9.90
2018-12-08T13:35:16.419Z,10.00
2018-12-08T13:39:20.270Z,10.00
2018-12-08T13:43:24.146Z,10.00
2018-12-08T13:47:27.941Z,10.10
2018-12-08T13:51:31.720Z,10.00
2018-12-08T13:55:36.368Z,10.00
2018-12-08T13:59:40.014Z,10.00
2018-12-08T14:03:44.988Z,10.00
2018-12-08T14:07:48.835Z,10.00
2018-12-08T14:11:53.012Z,10.00
2018-12-08T14:15:56.789Z,10.00
2018-12-08T14:20:10.658Z,10.00
2018-12-08T14:24:14.285Z,9.90
2018-12-08T14:28:18.178Z,9.90
2018-12-08T14:32:21.989Z,9.90
2018-12-08T14:36:25.658Z,10.00
2018-12-08T14:40:29.363Z,9.90
2018-12-08T14:44:33.001Z,9.90
2018-12-08T14:48:36.700Z,10.00
2018-12-08T14:52:40.446Z,10.00
2018-12-08T14:56:44.335Z,10.00
2018-12-08T15:00:47.934Z,10.00
2018-12-08T15:04:51.655Z,9.80
2018-12-08T15:08:55.296Z,9.90
2018-12-08T15:12:59.002Z,10.00
2018-12-08T15:17:02.647Z,9.90
2018-12-08T15:21:06.327Z,9.80
2018-12-08T15:25:10.603Z,9.90
2018-12-08T15:29:14.270Z,9.90
2018-12-08T15:33:23.383Z,10.00
2018-12-08T15:37:27.114Z,9.90
2018-12-08T15:41:30.795Z,9.80
2018-12-08T15:45:34.458Z,9.90
2018-12-08T15:49:38.122Z,9.80
2018-12-08T15:53:41.796Z,9.80
2018-12-08T15:57:45.566Z,9.80
2018-12-08T16:01:49.458Z,9.80
2018-12-08T16:05:53.578Z,9.80
2018-12-08T16:09:57.314Z,9.70
2018-12-08T16:14:00.989Z,9.80
2018-12-08T16:18:04.773Z,9.80
2018-12-08T16:22:08.406Z,9.80
2018-12-08T16:26:12.073Z,9.70
2018-12-08T16:30:15.732Z,9.70
2018-12-08T16:34:19.349Z,9.70
2018-12-08T16:38:23.008Z,9.80
2018-12-08T16:42:26.683Z,9.80
2018-12-08T16:46:30.366Z,9.80
2018-12-08T16:50:34.012Z,9.80
2018-12-08T16:54:37.633Z,9.80
2018-12-08T16:58:41.275Z,9.90
2018-12-08T17:02:44.946Z,9.80
2018-12-08T17:06:48.622Z,9.80
2018-12-08T17:10:52.270Z,9.80
2018-12-08T17:14:55.926Z,9.90
2018-12-08T17:18:59.586Z,9.80
2018-12-08T17:23:03.408Z,9.90
2018-12-08T17:27:07.093Z,9.90
2018-12-08T17:31:10.715Z,9.90
2018-12-08T17:35:14.462Z,9.90
2018-12-08T17:39:18.142Z,9.90
2018-12-08T17:43:21.798Z,9.90
2018-12-08T17:47:25.478Z,9.90
2018-12-08T17:51:29.129Z,9.80
2018-12-08T17:55:32.962Z,9.80
2018-12-08T17:59:36.651Z,9.80
2018-12-08T18:03:40.366Z,9.80
2018-12-08T18:07:44.038Z,9.80
2018-12-08T18:11:47.740Z,9.80
2018-12-08T18:15:51.365Z,9.80
2018-12-08T18:19:55.027Z,9.90
2018-12-08T18:23:58.659Z,9.80
2018-12-08T18:28:02.314Z,9.70
2018-12-08T18:32:06.354Z,9.80
2018-12-08T18:36:09.982Z,9.80
2018-12-08T18:40:13.716Z,9.80
2018-12-08T18:44:17.416Z,9.80
2018-12-08T18:48:21.049Z,9.80
2018-12-08T18:52:24.779Z,9.80
2018-12-08T18:56:28.436Z,9.80
2018-12-08T19:00:32.121Z,9.70
2018-12-08T19:04:35.818Z,9.80
2018-12-08T19:08:39.518Z,9.70
2018-12-08T19:12:43.614Z,9.80
2018-12-08T19:16:47.277Z,9.80
2018-12-08T19:20:50.967Z,9.90
2018-12-08T19:24:54.771Z,9.80
2018-12-08T19:28:58.534Z,9.80
2018-12-08T19:33:02.255Z,9.90
2018-12-08T19:37:05.926Z,9.90
2018-12-08T19:41:09.702Z,10.00
2018-12-08T19:45:13.638Z,10.00
2018-12-08T19:49:17.304Z,10.00
2018-12-08T19:53:20.991Z,10.00
2018-12-08T19:57:24.604Z,10.00
2018-12-08T20:01:28.265Z,10.10
2018-12-08T20:05:31.914Z,10.00
2018-12-08T20:09:35.582Z,10.10
2018-12-08T20:13:39.398Z,10.10
2018-12-08T20:17:43.038Z,10.20
2018-12-08T20:21:46.666Z,10.20
2018-12-08T20:25:50.337Z,10.20
2018-12-08T20:29:54.063Z,10.20
2018-12-08T20:33:58.789Z,10.20
2018-12-08T20:38:02.446Z,10.20
2018-12-08T20:42:06.175Z,10.10
2018-12-08T20:46:09.828Z,10.20
2018-12-08T20:50:13.497Z,10.20
2018-12-08T20:54:17.241Z,10.20
2018-12-08T20:58:20.878Z,10.20
2018-12-08T21:02:25.291Z,10.20
2018-12-08T21:06:28.965Z,10.20
2018-12-08T21:10:32.627Z,10.30
2018-12-08T21:14:36.493Z,10.30
2018-12-08T21:18:40.201Z,10.30
2018-12-08T21:22:43.945Z,10.30
2018-12-08T21:26:47.976Z,10.30
2018-12-08T21:30:51.978Z,10.30
2018-12-08T21:34:55.755Z,10.40
2018-12-08T21:38:59.675Z,10.30
2018-12-08T21:43:03.386Z,10.40
2018-12-08T21:47:07.149Z,10.40
2018-12-08T21:51:11.021Z,10.40
2018-12-08T21:55:14.930Z,10.40
2018-12-08T21:59:18.816Z,10.40
2018-12-08T22:03:22.689Z,10.40
2018-12-08T22:07:26.491Z,10.50
2018-12-08T22:11:30.448Z,10.50
2018-12-08T22:15:34.375Z,10.50
2018-12-08T22:19:38.047Z,10.40
2018-12-08T22:23:42.030Z,10.50
2018-12-08T22:27:45.850Z,10.50
2018-12-08T22:31:49.646Z,10.50
2018-12-08T22:35:54.351Z,10.50
2018-12-08T22:39:58.146Z,10.50
2018-12-08T22:44:01.949Z,10.50
2018-12-08T22:48:05.703Z,10.60
2018-12-08T22:52:09.597Z,10.60
2018-12-08T22:56:13.541Z,10.70
2018-12-08T23:00:28.588Z,10.70
2018-12-08T23:04:32.429Z,10.70
2018-12-08T23:08:36.226Z,10.70
2018-12-08T23:12:40.126Z,10.60
2018-12-08T23:16:43.909Z,10.60
2018-12-08T23:20:47.586Z,10.60
2018-12-08T23:24:51.267Z,10.70
2018-12-08T23:28:54.958Z,10.60
2018-12-08T23:32:58.642Z,10.70
2018-12-08T23:37:02.379Z,10.70
2018-12-08T23:41:06.159Z,10.70
2018-12-08T23:45:09.965Z,10.60
2018-12-08T23:49:13.607Z,10.70
2018-12-08T23:53:17.318Z,10.60
2018-12-08T23:57:20.965Z,10.60
